sensor_id;sensor_type;location;lat;lon;timestamp;P1;durP1;ratioP1;P2;durP2;ratioP2
54983;SDS011;40884;53.562;9.940;2023-11-21T00:00:29;24.80;;;14.67;;
54983;SDS011;40884;53.562;9.940;2023-11-21T00:01:29;24.10;;;13.73;;
54983;SDS011;40884;53.562;9.940;2023-11-21T00:02:29;23.37;;;14.90;;
54983;SDS011;40884;53.562;9.940;2023-11-21T00:03:30;23.63;;;14.57;;
54983;SDS011;40884;53.562;9.940;2023-11-21T00:04:30;22.17;;;13.00;;
54983;SDS011;40884;53.562;9.940;2023-11-21T00:05:30;22.27;;;13.93;;
54983;SDS011;40884;53.562;9.940;2023-11-21T00:06:30;19.80;;;12.70;;
54983;SDS011;40884;53.562;9.940;2023-11-21T00:07:30;17.03;;;11.50;;
54983;SDS011;40884;53.562;9.940;2023-11-21T00:08:31;17.30;;;12.03;;
54983;SDS011;40884;53.562;9.940;2023-11-21T00:09:31;15.60;;;10.73;;
54983;SDS011;40884;53.562;9.940;2023-11-21T00:10:31;14.97;;;9.80;;
54983;SDS011;40884;53.562;9.940;2023-11-21T00:11:31;16.23;;;10.27;;
54983;SDS011;40884;53.562;9.940;2023-11-21T00:12:32;14.10;;;11.00;;
54983;SDS011;40884;53.562;9.940;2023-11-21T00:13:32;14.73;;;9.73;;
54983;SDS011;40884;53.562;9.940;2023-11-21T00:14:32;12.33;;;9.47;;
54983;SDS011;40884;53.562;9.940;2023-11-21T00:15:32;14.23;;;9.90;;
54983;SDS011;40884;53.562;9.940;2023-11-21T00:16:32;14.13;;;10.30;;
54983;SDS011;40884;53.562;9.940;2023-11-21T00:17:32;15.13;;;10.63;;
54983;SDS011;40884;53.562;9.940;2023-11-21T00:18:33;13.73;;;10.50;;
54983;SDS011;40884;53.562;9.940;2023-11-21T00:19:33;13.40;;;10.77;;
54983;SDS011;40884;53.562;9.940;2023-11-21T00:20:33;13.87;;;10.43;;
54983;SDS011;40884;53.562;9.940;2023-11-21T00:21:33;14.17;;;10.07;;
54983;SDS011;40884;53.562;9.940;2023-11-21T00:22:34;15.23;;;10.27;;
54983;SDS011;40884;53.562;9.940;2023-11-21T00:23:34;14.93;;;10.50;;
54983;SDS011;40884;53.562;9.940;2023-11-21T00:24:34;14.13;;;10.50;;
54983;SDS011;40884;53.562;9.940;2023-11-21T00:25:34;14.33;;;10.00;;
54983;SDS011;40884;53.562;9.940;2023-11-21T00:26:34;14.10;;;11.20;;
54983;SDS011;40884;53.562;9.940;2023-11-21T00:27:35;13.57;;;10.27;;
54983;SDS011;40884;53.562;9.940;2023-11-21T00:28:36;14.67;;;10.50;;
54983;SDS011;40884;53.562;9.940;2023-11-21T00:29:36;12.97;;;10.60;;
54983;SDS011;40884;53.562;9.940;2023-11-21T00:30:36;13.57;;;10.40;;
54983;SDS011;40884;53.562;9.940;2023-11-21T00:31:36;14.00;;;10.53;;
54983;SDS011;40884;53.562;9.940;2023-11-21T00:32:36;14.33;;;10.73;;
54983;SDS011;40884;53.562;9.940;2023-11-21T00:33:36;15.03;;;10.43;;
54983;SDS011;40884;53.562;9.940;2023-11-21T00:34:37;14.13;;;10.87;;
54983;SDS011;40884;53.562;9.940;2023-11-21T00:35:37;13.00;;;9.37;;
54983;SDS011;40884;53.562;9.940;2023-11-21T00:36:37;11.93;;;9.70;;
54983;SDS011;40884;53.562;9.940;2023-11-21T00:37:37;13.50;;;8.30;;
54983;SDS011;40884;53.562;9.940;2023-11-21T00:38:37;11.27;;;9.10;;
54983;SDS011;40884;53.562;9.940;2023-11-21T00:39:37;12.27;;;9.30;;
54983;SDS011;40884;53.562;9.940;2023-11-21T00:40:37;10.30;;;8.87;;
54983;SDS011;40884;53.562;9.940;2023-11-21T00:41:37;11.43;;;8.73;;
54983;SDS011;40884;53.562;9.940;2023-11-21T00:42:38;12.33;;;9.87;;
54983;SDS011;40884;53.562;9.940;2023-11-21T00:43:38;11.67;;;9.60;;
54983;SDS011;40884;53.562;9.940;2023-11-21T00:44:38;12.90;;;9.93;;
54983;SDS011;40884;53.562;9.940;2023-11-21T00:45:38;12.70;;;9.40;;
54983;SDS011;40884;53.562;9.940;2023-11-21T00:46:38;12.70;;;9.77;;
54983;SDS011;40884;53.562;9.940;2023-11-21T00:47:39;12.10;;;9.20;;
54983;SDS011;40884;53.562;9.940;2023-11-21T00:48:39;14.80;;;8.87;;
54983;SDS011;40884;53.562;9.940;2023-11-21T00:49:39;12.00;;;9.27;;
54983;SDS011;40884;53.562;9.940;2023-11-21T00:50:39;11.83;;;9.03;;
54983;SDS011;40884;53.562;9.940;2023-11-21T00:51:39;12.93;;;9.10;;
54983;SDS011;40884;53.562;9.940;2023-11-21T00:52:39;13.83;;;9.90;;
54983;SDS011;40884;53.562;9.940;2023-11-21T00:53:39;12.83;;;10.17;;
54983;SDS011;40884;53.562;9.940;2023-11-21T00:54:39;12.90;;;10.13;;
54983;SDS011;40884;53.562;9.940;2023-11-21T00:55:39;12.97;;;10.77;;
54983;SDS011;40884;53.562;9.940;2023-11-21T00:56:40;12.37;;;9.70;;
54983;SDS011;40884;53.562;9.940;2023-11-21T00:57:40;13.33;;;10.57;;
54983;SDS011;40884;53.562;9.940;2023-11-21T00:58:40;13.37;;;10.77;;
54983;SDS011;40884;53.562;9.940;2023-11-21T00:59:41;12.77;;;10.13;;
54983;SDS011;40884;53.562;9.940;2023-11-21T01:00:41;13.20;;;10.73;;
54983;SDS011;40884;53.562;9.940;2023-11-21T01:01:41;13.97;;;10.43;;
54983;SDS011;40884;53.562;9.940;2023-11-21T01:02:42;16.17;;;10.63;;
54983;SDS011;40884;53.562;9.940;2023-11-21T01:03:42;15.87;;;10.47;;
54983;SDS011;40884;53.562;9.940;2023-11-21T01:04:42;13.80;;;10.90;;
54983;SDS011;40884;53.562;9.940;2023-11-21T01:05:42;16.90;;;11.83;;
54983;SDS011;40884;53.562;9.940;2023-11-21T01:06:42;14.27;;;11.13;;
54983;SDS011;40884;53.562;9.940;2023-11-21T01:07:43;18.23;;;12.20;;
54983;SDS011;40884;53.562;9.940;2023-11-21T01:08:43;14.93;;;12.17;;
54983;SDS011;40884;53.562;9.940;2023-11-21T01:09:44;17.87;;;11.73;;
54983;SDS011;40884;53.562;9.940;2023-11-21T01:10:44;16.10;;;11.57;;
54983;SDS011;40884;53.562;9.940;2023-11-21T01:11:44;15.13;;;12.00;;
54983;SDS011;40884;53.562;9.940;2023-11-21T01:12:44;19.23;;;12.33;;
54983;SDS011;40884;53.562;9.940;2023-11-21T01:13:44;16.13;;;12.40;;
54983;SDS011;40884;53.562;9.940;2023-11-21T01:14:44;16.93;;;12.57;;
54983;SDS011;40884;53.562;9.940;2023-11-21T01:15:45;18.03;;;12.80;;
54983;SDS011;40884;53.562;9.940;2023-11-21T01:16:46;25.73;;;13.80;;
54983;SDS011;40884;53.562;9.940;2023-11-21T01:17:47;18.13;;;13.07;;
54983;SDS011;40884;53.562;9.940;2023-11-21T01:18:47;16.40;;;12.67;;
54983;SDS011;40884;53.562;9.940;2023-11-21T01:19:47;18.30;;;13.63;;
54983;SDS011;40884;53.562;9.940;2023-11-21T01:20:47;21.53;;;14.80;;
54983;SDS011;40884;53.562;9.940;2023-11-21T01:21:47;21.27;;;13.80;;
54983;SDS011;40884;53.562;9.940;2023-11-21T01:22:47;19.43;;;13.07;;
54983;SDS011;40884;53.562;9.940;2023-11-21T01:23:47;19.90;;;13.47;;
54983;SDS011;40884;53.562;9.940;2023-11-21T01:24:47;20.00;;;14.40;;
54983;SDS011;40884;53.562;9.940;2023-11-21T01:25:48;18.30;;;13.67;;
54983;SDS011;40884;53.562;9.940;2023-11-21T01:26:48;18.80;;;14.23;;
54983;SDS011;40884;53.562;9.940;2023-11-21T01:27:48;19.47;;;14.57;;
54983;SDS011;40884;53.562;9.940;2023-11-21T01:28:48;19.30;;;14.30;;
54983;SDS011;40884;53.562;9.940;2023-11-21T01:29:48;18.53;;;13.37;;
54983;SDS011;40884;53.562;9.940;2023-11-21T01:30:49;18.97;;;14.20;;
54983;SDS011;40884;53.562;9.940;2023-11-21T01:31:49;19.23;;;13.57;;
54983;SDS011;40884;53.562;9.940;2023-11-21T01:32:49;19.40;;;12.93;;
54983;SDS011;40884;53.562;9.940;2023-11-21T01:33:50;17.43;;;13.20;;
54983;SDS011;40884;53.562;9.940;2023-11-21T01:34:50;20.47;;;13.70;;
54983;SDS011;40884;53.562;9.940;2023-11-21T01:35:50;20.53;;;13.50;;
54983;SDS011;40884;53.562;9.940;2023-11-21T01:36:50;19.57;;;14.00;;
54983;SDS011;40884;53.562;9.940;2023-11-21T01:37:50;17.50;;;13.97;;
54983;SDS011;40884;53.562;9.940;2023-11-21T01:38:52;18.07;;;13.20;;
54983;SDS011;40884;53.562;9.940;2023-11-21T01:39:52;20.03;;;14.70;;
54983;SDS011;40884;53.562;9.940;2023-11-21T01:40:52;17.13;;;12.90;;
54983;SDS011;40884;53.562;9.940;2023-11-21T01:41:52;17.63;;;13.07;;
54983;SDS011;40884;53.562;9.940;2023-11-21T01:42:52;17.90;;;13.27;;
54983;SDS011;40884;53.562;9.940;2023-11-21T01:43:53;19.57;;;13.43;;
54983;SDS011;40884;53.562;9.940;2023-11-21T01:44:53;18.70;;;12.57;;
54983;SDS011;40884;53.562;9.940;2023-11-21T01:45:56;16.97;;;13.03;;
54983;SDS011;40884;53.562;9.940;2023-11-21T01:46:57;17.60;;;12.73;;
54983;SDS011;40884;53.562;9.940;2023-11-21T01:47:57;16.97;;;13.93;;
54983;SDS011;40884;53.562;9.940;2023-11-21T01:48:57;18.07;;;12.70;;
54983;SDS011;40884;53.562;9.940;2023-11-21T01:49:57;16.33;;;12.90;;
54983;SDS011;40884;53.562;9.940;2023-11-21T01:50:58;16.03;;;12.10;;
54983;SDS011;40884;53.562;9.940;2023-11-21T01:51:58;15.10;;;12.00;;
54983;SDS011;40884;53.562;9.940;2023-11-21T01:52:58;16.13;;;11.77;;
54983;SDS011;40884;53.562;9.940;2023-11-21T01:53:59;16.47;;;12.23;;
54983;SDS011;40884;53.562;9.940;2023-11-21T01:54:59;15.00;;;11.93;;
54983;SDS011;40884;53.562;9.940;2023-11-21T01:56:00;14.13;;;10.90;;
54983;SDS011;40884;53.562;9.940;2023-11-21T01:57:00;13.63;;;11.00;;
54983;SDS011;40884;53.562;9.940;2023-11-21T01:58:02;12.73;;;10.63;;
54983;SDS011;40884;53.562;9.940;2023-11-21T01:59:02;14.03;;;12.03;;
54983;SDS011;40884;53.562;9.940;2023-11-21T02:00:02;14.67;;;11.07;;
54983;SDS011;40884;53.562;9.940;2023-11-21T02:01:12;14.82;;;11.40;;
54983;SDS011;40884;53.562;9.940;2023-11-21T02:02:12;13.83;;;10.97;;
54983;SDS011;40884;53.562;9.940;2023-11-21T02:03:13;13.33;;;10.83;;
54983;SDS011;40884;53.562;9.940;2023-11-21T02:04:13;12.50;;;10.57;;
54983;SDS011;40884;53.562;9.940;2023-11-21T02:05:16;13.20;;;11.00;;
54983;SDS011;40884;53.562;9.940;2023-11-21T02:06:17;14.27;;;10.57;;
54983;SDS011;40884;53.562;9.940;2023-11-21T02:07:19;13.05;;;10.20;;
54983;SDS011;40884;53.562;9.940;2023-11-21T02:08:21;14.27;;;11.02;;
54983;SDS011;40884;53.562;9.940;2023-11-21T02:09:25;12.57;;;10.40;;
54983;SDS011;40884;53.562;9.940;2023-11-21T02:10:25;14.63;;;10.30;;
54983;SDS011;40884;53.562;9.940;2023-11-21T02:11:25;11.30;;;9.77;;
54983;SDS011;40884;53.562;9.940;2023-11-21T02:12:25;10.70;;;9.50;;
54983;SDS011;40884;53.562;9.940;2023-11-21T02:13:26;10.87;;;9.73;;
54983;SDS011;40884;53.562;9.940;2023-11-21T02:14:26;10.77;;;9.50;;
54983;SDS011;40884;53.562;9.940;2023-11-21T02:15:26;10.73;;;9.00;;
54983;SDS011;40884;53.562;9.940;2023-11-21T02:16:27;12.27;;;9.70;;
54983;SDS011;40884;53.562;9.940;2023-11-21T02:17:27;14.30;;;9.33;;
54983;SDS011;40884;53.562;9.940;2023-11-21T02:18:27;11.13;;;8.80;;
54983;SDS011;40884;53.562;9.940;2023-11-21T02:19:27;9.77;;;8.73;;
54983;SDS011;40884;53.562;9.940;2023-11-21T02:20:27;10.93;;;9.00;;
54983;SDS011;40884;53.562;9.940;2023-11-21T02:21:27;12.50;;;8.83;;
54983;SDS011;40884;53.562;9.940;2023-11-21T02:22:29;9.70;;;8.60;;
54983;SDS011;40884;53.562;9.940;2023-11-21T02:23:30;9.73;;;8.68;;
54983;SDS011;40884;53.562;9.940;2023-11-21T02:24:30;8.70;;;7.80;;
54983;SDS011;40884;53.562;9.940;2023-11-21T02:25:31;9.60;;;8.00;;
54983;SDS011;40884;53.562;9.940;2023-11-21T02:26:32;10.15;;;8.05;;
54983;SDS011;40884;53.562;9.940;2023-11-21T02:27:32;10.23;;;8.23;;
54983;SDS011;40884;53.562;9.940;2023-11-21T02:28:32;9.43;;;7.97;;
54983;SDS011;40884;53.562;9.940;2023-11-21T02:29:32;8.67;;;7.77;;
54983;SDS011;40884;53.562;9.940;2023-11-21T02:30:32;9.10;;;7.93;;
54983;SDS011;40884;53.562;9.940;2023-11-21T02:31:32;8.80;;;7.10;;
54983;SDS011;40884;53.562;9.940;2023-11-21T02:32:32;9.20;;;7.90;;
54983;SDS011;40884;53.562;9.940;2023-11-21T02:33:33;10.13;;;7.93;;
54983;SDS011;40884;53.562;9.940;2023-11-21T02:34:33;9.17;;;7.43;;
54983;SDS011;40884;53.562;9.940;2023-11-21T02:35:33;10.20;;;7.50;;
54983;SDS011;40884;53.562;9.940;2023-11-21T02:36:33;8.47;;;7.53;;
54983;SDS011;40884;53.562;9.940;2023-11-21T02:37:33;9.67;;;7.60;;
54983;SDS011;40884;53.562;9.940;2023-11-21T02:38:33;10.80;;;7.10;;
54983;SDS011;40884;53.562;9.940;2023-11-21T02:39:34;8.32;;;7.50;;
54983;SDS011;40884;53.562;9.940;2023-11-21T02:40:35;8.37;;;7.50;;
54983;SDS011;40884;53.562;9.940;2023-11-21T02:41:35;10.33;;;7.47;;
54983;SDS011;40884;53.562;9.940;2023-11-21T02:42:35;8.60;;;7.70;;
54983;SDS011;40884;53.562;9.940;2023-11-21T02:43:36;8.80;;;7.83;;
54983;SDS011;40884;53.562;9.940;2023-11-21T02:44:36;8.37;;;7.43;;
54983;SDS011;40884;53.562;9.940;2023-11-21T02:45:36;9.90;;;7.63;;
54983;SDS011;40884;53.562;9.940;2023-11-21T02:46:36;8.37;;;7.47;;
54983;SDS011;40884;53.562;9.940;2023-11-21T02:47:37;9.30;;;7.20;;
54983;SDS011;40884;53.562;9.940;2023-11-21T02:48:37;9.67;;;7.60;;
54983;SDS011;40884;53.562;9.940;2023-11-21T02:49:37;9.63;;;7.97;;
54983;SDS011;40884;53.562;9.940;2023-11-21T02:50:37;9.10;;;8.10;;
54983;SDS011;40884;53.562;9.940;2023-11-21T02:51:37;8.97;;;7.50;;
54983;SDS011;40884;53.562;9.940;2023-11-21T02:52:37;8.70;;;7.53;;
54983;SDS011;40884;53.562;9.940;2023-11-21T02:53:38;8.67;;;7.30;;
54983;SDS011;40884;53.562;9.940;2023-11-21T02:54:38;10.10;;;7.57;;
54983;SDS011;40884;53.562;9.940;2023-11-21T02:55:38;8.47;;;7.17;;
54983;SDS011;40884;53.562;9.940;2023-11-21T02:56:38;8.13;;;7.00;;
54983;SDS011;40884;53.562;9.940;2023-11-21T02:57:38;9.70;;;7.37;;
54983;SDS011;40884;53.562;9.940;2023-11-21T02:58:41;11.07;;;7.63;;
54983;SDS011;40884;53.562;9.940;2023-11-21T02:59:41;8.82;;;7.55;;
54983;SDS011;40884;53.562;9.940;2023-11-21T03:00:41;8.00;;;7.20;;
54983;SDS011;40884;53.562;9.940;2023-11-21T03:01:42;9.67;;;7.80;;
54983;SDS011;40884;53.562;9.940;2023-11-21T03:02:43;10.27;;;7.63;;
54983;SDS011;40884;53.562;9.940;2023-11-21T03:03:44;9.05;;;7.80;;
54983;SDS011;40884;53.562;9.940;2023-11-21T03:04:44;7.93;;;7.13;;
54983;SDS011;40884;53.562;9.940;2023-11-21T03:05:44;9.33;;;8.07;;
54983;SDS011;40884;53.562;9.940;2023-11-21T03:06:44;8.47;;;7.57;;
54983;SDS011;40884;53.562;9.940;2023-11-21T03:07:45;8.67;;;7.30;;
54983;SDS011;40884;53.562;9.940;2023-11-21T03:08:45;9.10;;;7.73;;
54983;SDS011;40884;53.562;9.940;2023-11-21T03:09:45;9.97;;;7.80;;
54983;SDS011;40884;53.562;9.940;2023-11-21T03:10:45;8.47;;;7.50;;
54983;SDS011;40884;53.562;9.940;2023-11-21T03:11:46;8.57;;;7.50;;
54983;SDS011;40884;53.562;9.940;2023-11-21T03:12:46;8.83;;;7.90;;
54983;SDS011;40884;53.562;9.940;2023-11-21T03:13:46;8.17;;;7.30;;
54983;SDS011;40884;53.562;9.940;2023-11-21T03:14:46;8.70;;;7.67;;
54983;SDS011;40884;53.562;9.940;2023-11-21T03:15:46;10.07;;;7.97;;
54983;SDS011;40884;53.562;9.940;2023-11-21T03:16:47;10.47;;;8.40;;
54983;SDS011;40884;53.562;9.940;2023-11-21T03:17:47;10.43;;;8.20;;
54983;SDS011;40884;53.562;9.940;2023-11-21T03:18:47;9.50;;;8.00;;
54983;SDS011;40884;53.562;9.940;2023-11-21T03:19:47;9.30;;;7.90;;
54983;SDS011;40884;53.562;9.940;2023-11-21T03:20:49;8.88;;;7.97;;
54983;SDS011;40884;53.562;9.940;2023-11-21T03:21:49;9.80;;;7.43;;
54983;SDS011;40884;53.562;9.940;2023-11-21T03:22:49;8.30;;;7.30;;
54983;SDS011;40884;53.562;9.940;2023-11-21T03:23:49;9.37;;;8.07;;
54983;SDS011;40884;53.562;9.940;2023-11-21T03:24:49;9.20;;;7.90;;
54983;SDS011;40884;53.562;9.940;2023-11-21T03:25:49;8.33;;;7.27;;
54983;SDS011;40884;53.562;9.940;2023-11-21T03:26:49;9.03;;;8.13;;
54983;SDS011;40884;53.562;9.940;2023-11-21T03:27:49;8.77;;;7.87;;
54983;SDS011;40884;53.562;9.940;2023-11-21T03:28:50;9.03;;;7.80;;
54983;SDS011;40884;53.562;9.940;2023-11-21T03:29:50;9.57;;;7.53;;
54983;SDS011;40884;53.562;9.940;2023-11-21T03:30:51;8.67;;;7.40;;
54983;SDS011;40884;53.562;9.940;2023-11-21T03:31:51;9.77;;;8.00;;
54983;SDS011;40884;53.562;9.940;2023-11-21T03:32:51;8.70;;;7.80;;
54983;SDS011;40884;53.562;9.940;2023-11-21T03:33:51;9.17;;;8.00;;
54983;SDS011;40884;53.562;9.940;2023-11-21T03:34:57;11.07;;;8.17;;
54983;SDS011;40884;53.562;9.940;2023-11-21T03:35:57;8.63;;;7.72;;
54983;SDS011;40884;53.562;9.940;2023-11-21T03:36:58;10.93;;;8.18;;
54983;SDS011;40884;53.562;9.940;2023-11-21T03:37:58;10.53;;;8.10;;
54983;SDS011;40884;53.562;9.940;2023-11-21T03:38:58;9.37;;;7.87;;
54983;SDS011;40884;53.562;9.940;2023-11-21T03:39:58;9.93;;;8.27;;
54983;SDS011;40884;53.562;9.940;2023-11-21T03:40:59;8.73;;;7.70;;
54983;SDS011;40884;53.562;9.940;2023-11-21T03:42:02;9.43;;;8.00;;
54983;SDS011;40884;53.562;9.940;2023-11-21T03:43:02;11.30;;;7.87;;
54983;SDS011;40884;53.562;9.940;2023-11-21T03:44:02;9.27;;;7.80;;
54983;SDS011;40884;53.562;9.940;2023-11-21T03:45:03;10.67;;;8.57;;
54983;SDS011;40884;53.562;9.940;2023-11-21T03:46:03;8.80;;;7.90;;
54983;SDS011;40884;53.562;9.940;2023-11-21T03:47:03;8.70;;;7.80;;
54983;SDS011;40884;53.562;9.940;2023-11-21T03:48:03;9.67;;;8.43;;
54983;SDS011;40884;53.562;9.940;2023-11-21T03:49:04;9.20;;;8.30;;
54983;SDS011;40884;53.562;9.940;2023-11-21T03:50:04;11.83;;;9.00;;
54983;SDS011;40884;53.562;9.940;2023-11-21T03:51:04;9.50;;;8.50;;
54983;SDS011;40884;53.562;9.940;2023-11-21T03:52:04;10.30;;;8.13;;
54983;SDS011;40884;53.562;9.940;2023-11-21T03:53:06;10.00;;;8.50;;
54983;SDS011;40884;53.562;9.940;2023-11-21T03:54:06;10.33;;;8.10;;
54983;SDS011;40884;53.562;9.940;2023-11-21T03:55:06;10.27;;;8.50;;
54983;SDS011;40884;53.562;9.940;2023-11-21T03:56:07;8.53;;;7.47;;
54983;SDS011;40884;53.562;9.940;2023-11-21T03:57:07;10.90;;;8.10;;
54983;SDS011;40884;53.562;9.940;2023-11-21T03:58:07;10.20;;;7.60;;
54983;SDS011;40884;53.562;9.940;2023-11-21T03:59:07;10.30;;;8.47;;
54983;SDS011;40884;53.562;9.940;2023-11-21T04:00:07;10.10;;;8.73;;
54983;SDS011;40884;53.562;9.940;2023-11-21T04:01:12;9.82;;;8.35;;
54983;SDS011;40884;53.562;9.940;2023-11-21T04:02:18;8.73;;;7.82;;
54983;SDS011;40884;53.562;9.940;2023-11-21T04:03:18;10.57;;;8.53;;
54983;SDS011;40884;53.562;9.940;2023-11-21T04:04:18;10.60;;;8.43;;
54983;SDS011;40884;53.562;9.940;2023-11-21T04:05:19;9.33;;;8.33;;
54983;SDS011;40884;53.562;9.940;2023-11-21T04:06:20;9.02;;;8.02;;
54983;SDS011;40884;53.562;9.940;2023-11-21T04:07:20;9.40;;;8.10;;
54983;SDS011;40884;53.562;9.940;2023-11-21T04:08:20;8.93;;;8.03;;
54983;SDS011;40884;53.562;9.940;2023-11-21T04:09:20;10.23;;;7.67;;
54983;SDS011;40884;53.562;9.940;2023-11-21T04:10:20;11.30;;;8.00;;
54983;SDS011;40884;53.562;9.940;2023-11-21T04:11:20;8.77;;;7.83;;
54983;SDS011;40884;53.562;9.940;2023-11-21T04:12:20;9.07;;;7.70;;
54983;SDS011;40884;53.562;9.940;2023-11-21T04:13:21;9.50;;;8.23;;
54983;SDS011;40884;53.562;9.940;2023-11-21T04:14:21;10.43;;;8.27;;
54983;SDS011;40884;53.562;9.940;2023-11-21T04:15:22;9.20;;;7.70;;
54983;SDS011;40884;53.562;9.940;2023-11-21T04:16:22;9.37;;;8.00;;
54983;SDS011;40884;53.562;9.940;2023-11-21T04:17:22;11.07;;;7.87;;
54983;SDS011;40884;53.562;9.940;2023-11-21T04:18:22;10.00;;;8.17;;
54983;SDS011;40884;53.562;9.940;2023-11-21T04:19:22;10.00;;;8.33;;
54983;SDS011;40884;53.562;9.940;2023-11-21T04:20:22;9.03;;;8.07;;
54983;SDS011;40884;53.562;9.940;2023-11-21T04:21:22;8.77;;;7.87;;
54983;SDS011;40884;53.562;9.940;2023-11-21T04:22:23;10.77;;;8.70;;
54983;SDS011;40884;53.562;9.940;2023-11-21T04:23:23;9.53;;;7.63;;
54983;SDS011;40884;53.562;9.940;2023-11-21T04:24:23;9.90;;;8.90;;
54983;SDS011;40884;53.562;9.940;2023-11-21T04:25:23;10.10;;;8.33;;
54983;SDS011;40884;53.562;9.940;2023-11-21T04:26:23;10.40;;;8.20;;
54983;SDS011;40884;53.562;9.940;2023-11-21T04:27:23;10.13;;;8.00;;
54983;SDS011;40884;53.562;9.940;2023-11-21T04:28:23;10.37;;;8.00;;
54983;SDS011;40884;53.562;9.940;2023-11-21T04:29:23;9.30;;;7.53;;
54983;SDS011;40884;53.562;9.940;2023-11-21T04:30:23;9.27;;;7.97;;
54983;SDS011;40884;53.562;9.940;2023-11-21T04:31:24;10.53;;;8.30;;
54983;SDS011;40884;53.562;9.940;2023-11-21T04:32:24;9.53;;;8.07;;
54983;SDS011;40884;53.562;9.940;2023-11-21T04:33:24;10.57;;;8.10;;
54983;SDS011;40884;53.562;9.940;2023-11-21T04:34:24;9.23;;;8.33;;
54983;SDS011;40884;53.562;9.940;2023-11-21T04:35:24;11.17;;;8.60;;
54983;SDS011;40884;53.562;9.940;2023-11-21T04:36:24;9.47;;;8.43;;
54983;SDS011;40884;53.562;9.940;2023-11-21T04:37:24;10.23;;;8.70;;
54983;SDS011;40884;53.562;9.940;2023-11-21T04:38:24;9.93;;;8.50;;
54983;SDS011;40884;53.562;9.940;2023-11-21T04:39:25;10.20;;;8.40;;
54983;SDS011;40884;53.562;9.940;2023-11-21T04:40:25;10.13;;;8.13;;
54983;SDS011;40884;53.562;9.940;2023-11-21T04:41:25;9.87;;;8.53;;
54983;SDS011;40884;53.562;9.940;2023-11-21T04:42:25;10.23;;;8.60;;
54983;SDS011;40884;53.562;9.940;2023-11-21T04:43:25;9.83;;;8.33;;
54983;SDS011;40884;53.562;9.940;2023-11-21T04:44:25;8.83;;;7.93;;
54983;SDS011;40884;53.562;9.940;2023-11-21T04:45:25;10.23;;;8.80;;
54983;SDS011;40884;53.562;9.940;2023-11-21T04:46:25;9.63;;;8.40;;
54983;SDS011;40884;53.562;9.940;2023-11-21T04:47:26;10.77;;;8.00;;
54983;SDS011;40884;53.562;9.940;2023-11-21T04:48:26;11.43;;;9.27;;
54983;SDS011;40884;53.562;9.940;2023-11-21T04:49:26;11.50;;;8.83;;
54983;SDS011;40884;53.562;9.940;2023-11-21T04:50:26;9.83;;;8.80;;
54983;SDS011;40884;53.562;9.940;2023-11-21T04:51:26;9.47;;;8.47;;
54983;SDS011;40884;53.562;9.940;2023-11-21T04:52:26;11.13;;;8.53;;
54983;SDS011;40884;53.562;9.940;2023-11-21T04:53:26;10.63;;;9.27;;
54983;SDS011;40884;53.562;9.940;2023-11-21T04:54:26;10.17;;;8.63;;
54983;SDS011;40884;53.562;9.940;2023-11-21T04:55:27;10.03;;;8.43;;
54983;SDS011;40884;53.562;9.940;2023-11-21T04:56:27;11.87;;;8.83;;
54983;SDS011;40884;53.562;9.940;2023-11-21T04:57:27;9.93;;;8.90;;
54983;SDS011;40884;53.562;9.940;2023-11-21T04:58:27;11.17;;;9.00;;
54983;SDS011;40884;53.562;9.940;2023-11-21T04:59:27;9.93;;;8.50;;
54983;SDS011;40884;53.562;9.940;2023-11-21T05:00:27;11.27;;;8.93;;
54983;SDS011;40884;53.562;9.940;2023-11-21T05:01:27;10.57;;;8.90;;
54983;SDS011;40884;53.562;9.940;2023-11-21T05:02:27;10.20;;;8.90;;
54983;SDS011;40884;53.562;9.940;2023-11-21T05:03:27;11.87;;;8.70;;
54983;SDS011;40884;53.562;9.940;2023-11-21T05:04:28;12.20;;;9.40;;
54983;SDS011;40884;53.562;9.940;2023-11-21T05:05:28;9.73;;;8.67;;
54983;SDS011;40884;53.562;9.940;2023-11-21T05:06:28;9.93;;;8.13;;
54983;SDS011;40884;53.562;9.940;2023-11-21T05:07:28;10.70;;;8.40;;
54983;SDS011;40884;53.562;9.940;2023-11-21T05:08:28;9.73;;;8.73;;
54983;SDS011;40884;53.562;9.940;2023-11-21T05:09:28;10.23;;;8.53;;
54983;SDS011;40884;53.562;9.940;2023-11-21T05:10:28;9.53;;;8.53;;
54983;SDS011;40884;53.562;9.940;2023-11-21T05:11:28;9.00;;;8.10;;
54983;SDS011;40884;53.562;9.940;2023-11-21T05:12:30;10.77;;;8.80;;
54983;SDS011;40884;53.562;9.940;2023-11-21T05:13:31;10.60;;;8.55;;
54983;SDS011;40884;53.562;9.940;2023-11-21T05:14:34;9.98;;;8.10;;
54983;SDS011;40884;53.562;9.940;2023-11-21T05:15:34;9.67;;;8.67;;
54983;SDS011;40884;53.562;9.940;2023-11-21T05:16:34;9.93;;;8.43;;
54983;SDS011;40884;53.562;9.940;2023-11-21T05:17:35;8.70;;;7.83;;
54983;SDS011;40884;53.562;9.940;2023-11-21T05:18:35;10.13;;;8.10;;
54983;SDS011;40884;53.562;9.940;2023-11-21T05:19:35;9.00;;;7.90;;
54983;SDS011;40884;53.562;9.940;2023-11-21T05:20:35;10.33;;;8.37;;
54983;SDS011;40884;53.562;9.940;2023-11-21T05:21:36;10.73;;;8.43;;
54983;SDS011;40884;53.562;9.940;2023-11-21T05:22:36;10.17;;;8.53;;
54983;SDS011;40884;53.562;9.940;2023-11-21T05:23:36;9.17;;;8.17;;
54983;SDS011;40884;53.562;9.940;2023-11-21T05:24:36;9.47;;;8.53;;
54983;SDS011;40884;53.562;9.940;2023-11-21T05:25:36;9.17;;;8.23;;
54983;SDS011;40884;53.562;9.940;2023-11-21T05:26:36;8.90;;;7.87;;
54983;SDS011;40884;53.562;9.940;2023-11-21T05:27:36;10.50;;;9.03;;
54983;SDS011;40884;53.562;9.940;2023-11-21T05:28:36;10.30;;;8.80;;
54983;SDS011;40884;53.562;9.940;2023-11-21T05:29:36;9.47;;;8.47;;
54983;SDS011;40884;53.562;9.940;2023-11-21T05:30:37;9.37;;;8.27;;
54983;SDS011;40884;53.562;9.940;2023-11-21T05:31:37;10.50;;;8.57;;
54983;SDS011;40884;53.562;9.940;2023-11-21T05:32:37;9.23;;;8.20;;
54983;SDS011;40884;53.562;9.940;2023-11-21T05:33:37;10.50;;;8.13;;
54983;SDS011;40884;53.562;9.940;2023-11-21T05:34:37;8.90;;;7.90;;
54983;SDS011;40884;53.562;9.940;2023-11-21T05:35:37;10.37;;;8.70;;
54983;SDS011;40884;53.562;9.940;2023-11-21T05:36:38;8.83;;;7.73;;
54983;SDS011;40884;53.562;9.940;2023-11-21T05:37:38;9.50;;;8.20;;
54983;SDS011;40884;53.562;9.940;2023-11-21T05:38:38;11.63;;;8.03;;
54983;SDS011;40884;53.562;9.940;2023-11-21T05:39:38;9.80;;;8.50;;
54983;SDS011;40884;53.562;9.940;2023-11-21T05:40:38;9.90;;;8.20;;
54983;SDS011;40884;53.562;9.940;2023-11-21T05:41:38;9.80;;;7.87;;
54983;SDS011;40884;53.562;9.940;2023-11-21T05:42:38;9.23;;;7.87;;
54983;SDS011;40884;53.562;9.940;2023-11-21T05:43:39;10.97;;;8.47;;
54983;SDS011;40884;53.562;9.940;2023-11-21T05:44:41;11.27;;;8.23;;
54983;SDS011;40884;53.562;9.940;2023-11-21T05:45:41;9.75;;;8.23;;
54983;SDS011;40884;53.562;9.940;2023-11-21T05:46:41;9.90;;;8.43;;
54983;SDS011;40884;53.562;9.940;2023-11-21T05:47:42;9.87;;;8.13;;
54983;SDS011;40884;53.562;9.940;2023-11-21T05:48:42;14.48;;;8.32;;
54983;SDS011;40884;53.562;9.940;2023-11-21T05:49:42;10.37;;;8.20;;
54983;SDS011;40884;53.562;9.940;2023-11-21T05:50:42;8.83;;;7.93;;
54983;SDS011;40884;53.562;9.940;2023-11-21T05:51:43;10.10;;;7.87;;
54983;SDS011;40884;53.562;9.940;2023-11-21T05:52:43;10.20;;;8.57;;
54983;SDS011;40884;53.562;9.940;2023-11-21T05:53:44;9.17;;;8.23;;
54983;SDS011;40884;53.562;9.940;2023-11-21T05:54:44;9.90;;;7.93;;
54983;SDS011;40884;53.562;9.940;2023-11-21T05:55:44;9.43;;;8.43;;
54983;SDS011;40884;53.562;9.940;2023-11-21T05:56:44;9.27;;;8.00;;
54983;SDS011;40884;53.562;9.940;2023-11-21T05:57:44;10.87;;;8.63;;
54983;SDS011;40884;53.562;9.940;2023-11-21T05:58:44;8.57;;;7.70;;